Terminal Aerodrome Forecast
Issued by NWS

Home | Current Version | Previous Version | Text Only | Print | Product List | Glossary On
Versions: 1 2 3 4 5 6 7 8 9 10 11 12 13 14 15 16
000
FTUS43 KDVN 241100
TAFBRL
TAF
KBRL 241130Z 2412/2512 13004KT 1/4SM FG VV002
      TEMPO 2413/2414 3SM BR BKN003
     FM241400 18008KT 3SM BR SCT250
      TEMPO 2414/2415 1/2SM FG BKN006
     FM241500 18005KT P6SM SCT250=

USA.gov is the U.S. government's official web portal to all federal, state and local government web resources and services.